createdAt,value
2022-12-29T00:00:12.289Z,12.06
2022-12-29T00:02:41.810Z,11.94
2022-12-29T00:05:10.121Z,11.98
2022-12-29T00:07:38.253Z,11.87
2022-12-29T00:10:08.587Z,12.00
2022-12-29T00:12:50.355Z,11.89
2022-12-29T00:15:36.033Z,11.93
2022-12-29T00:18:05.679Z,12.07
2022-12-29T00:20:54.187Z,12.04
2022-12-29T00:23:39.960Z,12.20
2022-12-29T00:26:34.415Z,12.23
2022-12-29T00:29:19.760Z,11.91
2022-12-29T00:32:05.220Z,12.23
2022-12-29T00:34:52.231Z,12.09
2022-12-29T00:37:41.462Z,12.13
2022-12-29T00:40:27.255Z,12.22
2022-12-29T00:43:12.618Z,12.33
2022-12-29T00:45:42.766Z,12.19
2022-12-29T00:48:10.632Z,12.25
2022-12-29T00:50:38.825Z,12.15
2022-12-29T00:53:06.772Z,12.23
2022-12-29T00:55:39.556Z,12.28
2022-12-29T00:58:07.963Z,12.25
2022-12-29T01:00:35.797Z,12.27
2022-12-29T01:03:03.791Z,12.20
2022-12-29T01:05:31.995Z,12.17
2022-12-29T01:08:01.101Z,12.17
2022-12-29T01:10:27.918Z,12.22
2022-12-29T01:12:55.848Z,12.14
2022-12-29T01:15:24.256Z,12.12
2022-12-29T01:17:52.010Z,12.17
2022-12-29T01:20:21.016Z,12.22
2022-12-29T01:22:49.300Z,12.16
2022-12-29T01:25:18.516Z,12.13
2022-12-29T01:27:46.964Z,12.35
2022-12-29T01:30:15.048Z,12.30
2022-12-29T01:32:43.058Z,12.19
2022-12-29T01:35:11.632Z,12.20
2022-12-29T01:37:39.396Z,12.15
2022-12-29T01:40:08.739Z,12.34
2022-12-29T01:42:37.900Z,12.21
2022-12-29T01:45:13.914Z,12.23
2022-12-29T01:47:46.878Z,12.24
2022-12-29T01:50:25.011Z,12.09
2022-12-29T01:52:58.477Z,12.20
2022-12-29T01:55:28.656Z,12.15
2022-12-29T01:58:01.987Z,12.12
2022-12-29T02:00:29.747Z,12.16
2022-12-29T02:02:57.682Z,12.13
2022-12-29T02:05:35.227Z,11.97
2022-12-29T02:08:04.485Z,11.94
2022-12-29T02:10:36.550Z,11.75
2022-12-29T02:13:05.825Z,11.64
2022-12-29T02:15:47.562Z,11.76
2022-12-29T02:18:34.472Z,11.65
2022-12-29T02:21:48.050Z,11.56
2022-12-29T02:25:11.577Z,11.65
2022-12-29T02:27:54.955Z,11.63
2022-12-29T02:30:47.997Z,11.60
2022-12-29T02:33:46.284Z,11.59
2022-12-29T02:36:30.805Z,11.40
2022-12-29T02:39:12.579Z,11.47
2022-12-29T02:41:58.409Z,11.55
2022-12-29T02:44:38.345Z,11.66
2022-12-29T02:47:18.720Z,11.75
2022-12-29T02:49:59.853Z,11.69
2022-12-29T02:52:34.559Z,11.63
2022-12-29T02:55:01.464Z,11.67
2022-12-29T02:57:34.437Z,11.57
2022-12-29T03:00:08.576Z,11.60
2022-12-29T03:03:22.786Z,11.64
2022-12-29T03:06:15.744Z,11.73
2022-12-29T03:08:56.547Z,11.78
2022-12-29T03:11:55.433Z,11.62
2022-12-29T03:14:51.947Z,11.69
2022-12-29T03:17:31.656Z,11.80
2022-12-29T03:20:08.442Z,11.64
2022-12-29T03:22:41.585Z,11.69
2022-12-29T03:25:18.946Z,11.79
2022-12-29T03:27:52.723Z,11.61
2022-12-29T03:30:21.284Z,11.30
2022-12-29T03:32:55.463Z,11.22
2022-12-29T03:35:29.596Z,11.12
2022-12-29T03:38:04.683Z,11.12
2022-12-29T03:40:35.624Z,10.96
2022-12-29T03:43:05.504Z,11.03
2022-12-29T03:45:33.463Z,11.16
2022-12-29T03:48:01.727Z,11.33
2022-12-29T03:50:31.086Z,11.27
2022-12-29T03:52:58.995Z,11.30
2022-12-29T03:55:26.894Z,11.39
2022-12-29T03:57:55.017Z,11.52
2022-12-29T04:00:23.097Z,11.46
2022-12-29T04:02:51.352Z,11.42
2022-12-29T04:05:19.543Z,11.50
2022-12-29T04:07:48.761Z,11.58
2022-12-29T04:10:17.193Z,11.48
2022-12-29T04:12:46.817Z,11.39
2022-12-29T04:15:15.339Z,11.51
2022-12-29T04:17:43.288Z,11.50
2022-12-29T04:20:29.513Z,11.60
2022-12-29T04:23:03.496Z,11.54
2022-12-29T04:25:33.379Z,11.48
2022-12-29T04:28:02.823Z,11.60
2022-12-29T04:30:30.889Z,11.57
2022-12-29T04:32:58.773Z,11.56
2022-12-29T04:35:26.701Z,11.59
2022-12-29T04:37:54.701Z,11.55
2022-12-29T04:40:24.767Z,11.68
2022-12-29T04:42:53.210Z,11.48
2022-12-29T04:45:21.092Z,11.63
2022-12-29T04:47:48.938Z,11.74
2022-12-29T04:50:16.883Z,11.75
2022-12-29T04:52:45.906Z,11.89
2022-12-29T04:55:13.684Z,11.90
2022-12-29T04:57:44.132Z,11.86
2022-12-29T05:00:13.951Z,11.88
2022-12-29T05:02:43.471Z,11.87
2022-12-29T05:05:12.412Z,11.89
2022-12-29T05:07:40.609Z,11.86
2022-12-29T05:10:10.570Z,11.96
2022-12-29T05:12:40.068Z,11.99
2022-12-29T05:15:11.873Z,12.06
2022-12-29T05:17:39.847Z,12.00
2022-12-29T05:20:10.049Z,12.01
2022-12-29T05:22:38.237Z,11.81
2022-12-29T05:25:07.267Z,11.81
2022-12-29T05:27:35.453Z,11.81
2022-12-29T05:30:03.364Z,11.62
2022-12-29T05:32:32.633Z,11.64
2022-12-29T05:35:01.299Z,11.56
2022-12-29T05:37:29.167Z,11.68
2022-12-29T05:39:56.923Z,11.67
2022-12-29T05:42:24.887Z,11.73
2022-12-29T05:44:54.989Z,11.47
2022-12-29T05:47:22.827Z,11.68
2022-12-29T05:49:52.588Z,11.68
2022-12-29T05:52:20.492Z,11.59
2022-12-29T05:54:48.891Z,11.59
2022-12-29T05:57:16.701Z,11.51
2022-12-29T05:59:44.950Z,11.35
2022-12-29T06:02:12.917Z,11.41
2022-12-29T06:04:40.979Z,11.19
2022-12-29T06:07:10.117Z,11.14
2022-12-29T06:09:37.950Z,11.16
2022-12-29T06:12:07.319Z,11.08
2022-12-29T06:14:35.164Z,11.08
2022-12-29T06:17:03.463Z,11.04
2022-12-29T06:19:31.907Z,10.88
2022-12-29T06:21:59.865Z,10.91
2022-12-29T06:24:29.035Z,10.95
2022-12-29T06:26:57.014Z,10.86
2022-12-29T06:29:24.916Z,10.98
2022-12-29T06:31:57.137Z,11.02
2022-12-29T06:34:25.102Z,11.03
2022-12-29T06:36:53.401Z,11.14
2022-12-29T06:39:21.191Z,11.00
2022-12-29T06:41:53.427Z,11.26
2022-12-29T06:44:21.313Z,11.28
2022-12-29T06:46:49.433Z,11.23
2022-12-29T06:49:17.572Z,11.20
2022-12-29T06:51:45.468Z,11.16
2022-12-29T06:54:13.391Z,11.20
2022-12-29T06:56:41.205Z,11.16
2022-12-29T06:59:11.620Z,11.18
2022-12-29T07:01:39.713Z,11.15
2022-12-29T07:04:07.791Z,11.18
2022-12-29T07:06:35.640Z,11.20
2022-12-29T07:09:03.500Z,11.16
2022-12-29T07:11:31.381Z,11.16
2022-12-29T07:14:02.408Z,11.17
2022-12-29T07:16:31.982Z,11.10
2022-12-29T07:19:00.430Z,10.93
2022-12-29T07:21:28.543Z,10.97
2022-12-29T07:23:56.910Z,10.82
2022-12-29T07:26:25.247Z,10.65
2022-12-29T07:28:53.187Z,10.57
2022-12-29T07:31:24.484Z,10.56
2022-12-29T07:33:53.897Z,10.45
2022-12-29T07:36:34.141Z,10.63
2022-12-29T07:39:02.792Z,10.52
2022-12-29T07:41:30.631Z,10.42
2022-12-29T07:43:58.461Z,10.52
2022-12-29T07:46:54.623Z,10.60
2022-12-29T07:49:15.616Z,10.69
2022-12-29T07:51:57.536Z,10.52
2022-12-29T07:54:26.582Z,10.57
2022-12-29T07:56:54.425Z,10.59
2022-12-29T07:59:22.463Z,10.59
2022-12-29T08:01:50.360Z,10.47
2022-12-29T08:04:20.170Z,10.34
2022-12-29T08:06:48.212Z,9.99
2022-12-29T08:09:22.004Z,9.92
2022-12-29T08:11:50.989Z,9.68
2022-12-29T08:14:19.174Z,9.71
2022-12-29T08:16:47.006Z,9.79
2022-12-29T08:19:16.229Z,9.75
2022-12-29T08:21:45.412Z,9.68
2022-12-29T08:24:13.296Z,9.42
2022-12-29T08:26:41.149Z,9.76
2022-12-29T08:29:09.076Z,9.49
2022-12-29T08:31:37.167Z,9.70
2022-12-29T08:34:05.211Z,9.63
2022-12-29T08:36:33.206Z,9.85
2022-12-29T08:39:03.013Z,9.95
2022-12-29T08:41:30.887Z,9.96
2022-12-29T08:43:58.689Z,9.93
2022-12-29T08:46:26.677Z,10.14
2022-12-29T08:48:55.232Z,10.27
2022-12-29T08:51:25.138Z,10.30
2022-12-29T08:53:53.815Z,10.34
2022-12-29T08:56:24.596Z,10.55
2022-12-29T08:58:52.725Z,10.61
2022-12-29T09:01:21.485Z,10.67
2022-12-29T09:06:40.712Z,10.69
2022-12-29T09:09:08.960Z,11.15
2022-12-29T09:11:38.206Z,11.69
2022-12-29T09:14:06.178Z,11.77
2022-12-29T09:16:35.091Z,11.70
2022-12-29T09:19:04.130Z,11.60
2022-12-29T09:21:32.211Z,11.38
2022-12-29T09:24:00.371Z,11.30
2022-12-29T09:26:28.200Z,11.40
2022-12-29T09:28:57.875Z,11.43
2022-12-29T09:31:26.222Z,11.43
2022-12-29T09:33:54.278Z,11.31
2022-12-29T09:36:22.090Z,11.08
2022-12-29T09:38:49.915Z,11.26
2022-12-29T09:41:28.483Z,11.27
2022-12-29T09:44:18.577Z,11.25
2022-12-29T09:46:51.486Z,10.98
2022-12-29T09:49:30.879Z,11.07
2022-12-29T09:52:07.989Z,10.72
2022-12-29T09:54:54.982Z,11.02
2022-12-29T09:57:31.674Z,10.84
2022-12-29T10:00:14.594Z,10.99
2022-12-29T10:02:48.783Z,10.81
2022-12-29T10:05:32.640Z,11.15
2022-12-29T10:08:27.311Z,11.14
2022-12-29T10:11:00.990Z,11.09
2022-12-29T10:13:49.322Z,11.35
2022-12-29T10:16:30.820Z,11.45
2022-12-29T10:19:22.169Z,11.26
2022-12-29T10:22:14.563Z,11.31
2022-12-29T10:24:46.147Z,11.33
2022-12-29T10:27:17.900Z,11.35
2022-12-29T10:29:52.414Z,11.07
2022-12-29T10:32:32.424Z,10.97
2022-12-29T10:35:09.166Z,10.78
2022-12-29T10:37:47.408Z,10.67
2022-12-29T10:40:26.711Z,10.87
2022-12-29T10:42:59.160Z,10.79
2022-12-29T10:45:34.648Z,10.77
2022-12-29T10:48:15.021Z,10.71
2022-12-29T10:50:44.067Z,10.72
2022-12-29T10:53:21.709Z,10.54
2022-12-29T10:55:51.016Z,10.75
2022-12-29T10:58:20.394Z,10.63
2022-12-29T11:00:54.679Z,10.78
2022-12-29T11:03:50.455Z,10.92
2022-12-29T11:06:27.918Z,10.92
2022-12-29T11:09:00.420Z,10.83
2022-12-29T11:11:35.413Z,10.68
2022-12-29T11:14:14.627Z,11.00
2022-12-29T11:16:45.110Z,10.81
2022-12-29T11:19:27.145Z,10.77
2022-12-29T11:21:55.126Z,10.76
2022-12-29T11:24:26.336Z,10.71
2022-12-29T11:26:58.463Z,10.73
2022-12-29T11:29:30.144Z,10.62
2022-12-29T11:32:00.885Z,10.41
2022-12-29T11:34:36.950Z,10.59
2022-12-29T11:37:12.225Z,10.40
2022-12-29T11:39:48.637Z,10.37
2022-12-29T11:42:20.687Z,10.49
2022-12-29T11:44:51.538Z,10.31
2022-12-29T11:47:30.979Z,10.33
2022-12-29T11:50:04.544Z,10.21
2022-12-29T11:52:40.264Z,10.20
2022-12-29T11:55:22.878Z,10.47
2022-12-29T11:57:54.071Z,10.47
2022-12-29T12:00:25.889Z,10.55
2022-12-29T12:03:00.894Z,10.40
2022-12-29T12:05:44.023Z,10.49
2022-12-29T12:08:22.240Z,10.33
2022-12-29T12:10:59.350Z,10.26
2022-12-29T12:13:37.183Z,10.37
2022-12-29T12:16:11.498Z,10.24
2022-12-29T12:18:50.771Z,10.25
2022-12-29T12:21:29.898Z,10.27
2022-12-29T12:24:39.651Z,10.36
2022-12-29T12:27:17.286Z,10.57
2022-12-29T12:29:57.126Z,10.30
2022-12-29T12:32:38.851Z,10.28
2022-12-29T12:35:07.346Z,10.49
2022-12-29T12:38:05.035Z,10.40
2022-12-29T12:41:10.739Z,10.50
2022-12-29T12:43:51.824Z,10.85
2022-12-29T12:46:51.873Z,10.82
2022-12-29T12:50:00.028Z,10.79
2022-12-29T12:52:47.023Z,10.59
2022-12-29T12:55:55.788Z,10.62
2022-12-29T12:58:39.713Z,10.68
2022-12-29T13:01:30.410Z,10.68
2022-12-29T13:04:38.029Z,10.83
2022-12-29T13:07:22.275Z,10.70
2022-12-29T13:10:14.128Z,10.89
2022-12-29T13:12:56.896Z,10.61
2022-12-29T13:15:46.955Z,10.74
2022-12-29T13:18:30.046Z,10.79
2022-12-29T13:21:11.827Z,10.99
2022-12-29T13:23:50.620Z,10.88
2022-12-29T13:26:29.339Z,11.00
2022-12-29T13:29:18.352Z,10.71
2022-12-29T13:32:24.118Z,10.84
2022-12-29T13:35:08.729Z,10.54
2022-12-29T13:37:49.046Z,10.59
2022-12-29T13:40:23.398Z,10.47
2022-12-29T13:42:52.666Z,10.87
2022-12-29T13:45:26.883Z,10.85
2022-12-29T13:48:05.741Z,10.66
2022-12-29T13:50:40.279Z,10.53
2022-12-29T13:53:21.409Z,10.74
2022-12-29T13:55:58.323Z,10.88
2022-12-29T13:58:43.903Z,10.79
2022-12-29T14:01:20.969Z,11.08
2022-12-29T14:03:52.721Z,11.16
2022-12-29T14:06:29.263Z,11.22
2022-12-29T14:09:02.244Z,10.99
2022-12-29T14:11:37.392Z,10.85
2022-12-29T14:14:21.711Z,11.04
2022-12-29T14:16:52.379Z,11.02
2022-12-29T14:19:28.465Z,11.02
2022-12-29T14:22:32.442Z,10.90
2022-12-29T14:25:01.967Z,10.95
2022-12-29T14:27:55.536Z,11.10
2022-12-29T14:31:00.497Z,11.04
2022-12-29T14:33:33.428Z,10.94
2022-12-29T14:36:23.923Z,11.10
2022-12-29T14:38:51.919Z,10.80
2022-12-29T14:41:35.209Z,10.85
2022-12-29T14:44:19.667Z,10.98
2022-12-29T14:46:56.542Z,10.48
2022-12-29T14:49:31.997Z,10.48
2022-12-29T14:52:15.255Z,10.25
2022-12-29T14:54:51.606Z,10.17
2022-12-29T14:57:41.323Z,10.32
2022-12-29T15:00:20.603Z,10.23
2022-12-29T15:02:56.659Z,10.60
2022-12-29T15:05:42.794Z,10.56
2022-12-29T15:08:14.375Z,10.84
2022-12-29T15:10:50.440Z,10.63
2022-12-29T15:13:24.409Z,10.47
2022-12-29T15:15:53.706Z,10.45
2022-12-29T15:18:29.159Z,10.61
2022-12-29T15:21:02.582Z,10.59
2022-12-29T15:23:35.409Z,10.49
2022-12-29T15:26:08.396Z,10.57
2022-12-29T15:28:43.092Z,10.69
2022-12-29T15:31:16.529Z,10.69
2022-12-29T15:33:48.952Z,10.76
2022-12-29T15:36:23.507Z,10.63
2022-12-29T15:38:52.657Z,10.76
2022-12-29T15:41:57.059Z,10.73
2022-12-29T15:44:31.866Z,10.56
2022-12-29T15:47:03.843Z,10.12
2022-12-29T15:49:33.220Z,9.99
2022-12-29T15:52:02.704Z,9.95
2022-12-29T15:54:34.409Z,9.82
2022-12-29T15:57:02.438Z,9.81
2022-12-29T15:59:34.530Z,9.75
2022-12-29T16:02:10.099Z,9.83
2022-12-29T16:05:15.574Z,9.87
2022-12-29T16:07:41.353Z,9.69
2022-12-29T16:10:34.346Z,9.67
2022-12-29T16:13:21.401Z,9.74
2022-12-29T16:15:50.784Z,10.07
2022-12-29T16:18:29.589Z,9.95
2022-12-29T16:20:59.267Z,10.06
2022-12-29T16:23:32.215Z,10.03
2022-12-29T16:26:00.636Z,10.08
2022-12-29T16:28:42.786Z,10.11
2022-12-29T16:31:24.656Z,10.25
2022-12-29T16:33:54.272Z,10.02
2022-12-29T16:36:31.039Z,10.21
2022-12-29T16:39:27.504Z,10.05
2022-12-29T16:41:58.197Z,9.99
2022-12-29T16:44:29.452Z,10.11
2022-12-29T16:47:21.751Z,10.09
2022-12-29T16:49:55.058Z,10.06
2022-12-29T16:52:30.780Z,10.13
2022-12-29T16:55:02.899Z,10.04
2022-12-29T16:57:34.853Z,10.26
2022-12-29T17:00:08.438Z,10.14
2022-12-29T17:02:47.041Z,10.28
2022-12-29T17:05:16.572Z,10.08
2022-12-29T17:07:45.447Z,10.05
2022-12-29T17:10:15.764Z,9.94
2022-12-29T17:12:46.049Z,9.92
2022-12-29T17:15:21.607Z,10.17
2022-12-29T17:17:53.464Z,10.14
2022-12-29T17:20:24.745Z,10.15
2022-12-29T17:22:54.200Z,10.25
2022-12-29T17:25:30.546Z,10.14
2022-12-29T17:28:01.959Z,10.26
2022-12-29T17:30:34.535Z,10.00
2022-12-29T17:33:08.808Z,10.11
2022-12-29T17:35:37.252Z,10.26
2022-12-29T17:38:11.799Z,10.30
2022-12-29T17:40:41.025Z,10.16
2022-12-29T17:43:16.323Z,10.13
2022-12-29T17:45:48.505Z,9.90
2022-12-29T17:48:20.005Z,9.95
2022-12-29T17:50:52.107Z,9.94
2022-12-29T17:53:24.813Z,9.97
2022-12-29T17:55:54.338Z,9.96
2022-12-29T17:58:24.567Z,9.69
2022-12-29T18:00:54.915Z,9.70
2022-12-29T18:03:26.860Z,9.87
2022-12-29T18:05:55.067Z,9.86
2022-12-29T18:08:23.465Z,9.88
2022-12-29T18:10:56.134Z,9.96
2022-12-29T18:13:31.836Z,9.88
2022-12-29T18:16:07.547Z,9.74
2022-12-29T18:18:35.354Z,9.83
2022-12-29T18:21:03.538Z,9.83
2022-12-29T18:23:35.214Z,9.74
2022-12-29T18:26:12.598Z,9.69
2022-12-29T18:28:40.682Z,9.92
2022-12-29T18:31:20.371Z,9.63
2022-12-29T18:33:49.501Z,9.81
2022-12-29T18:36:19.470Z,9.44
2022-12-29T18:38:48.089Z,9.49
2022-12-29T18:41:21.160Z,9.49
2022-12-29T18:43:49.668Z,9.67
2022-12-29T18:46:22.828Z,9.46
2022-12-29T18:48:51.996Z,9.40
2022-12-29T18:51:23.294Z,9.46
2022-12-29T18:53:53.764Z,9.65
2022-12-29T18:56:24.459Z,9.62
2022-12-29T18:58:53.399Z,9.40
2022-12-29T19:01:24.697Z,9.16
2022-12-29T19:03:53.420Z,9.38
2022-12-29T19:06:22.637Z,9.30
2022-12-29T19:08:50.756Z,9.32
2022-12-29T19:11:18.731Z,9.26
2022-12-29T19:13:47.839Z,9.00
2022-12-29T19:16:20.554Z,9.06
2022-12-29T19:19:07.402Z,9.00
2022-12-29T19:21:36.766Z,9.11
2022-12-29T19:24:05.135Z,8.81
2022-12-29T19:26:37.004Z,9.02
2022-12-29T19:29:09.672Z,9.00
2022-12-29T19:31:39.144Z,8.85
2022-12-29T19:34:06.980Z,9.00
2022-12-29T19:36:34.838Z,9.19
2022-12-29T19:39:03.072Z,9.12
2022-12-29T19:41:30.987Z,9.09
2022-12-29T19:43:59.089Z,9.00
2022-12-29T19:46:28.561Z,9.01
2022-12-29T19:48:58.953Z,8.95
2022-12-29T19:51:27.932Z,9.03
2022-12-29T19:53:58.333Z,9.08
2022-12-29T19:56:25.968Z,8.93
2022-12-29T19:58:53.985Z,8.97
2022-12-29T20:01:23.895Z,8.96
2022-12-29T20:03:53.570Z,8.82
2022-12-29T20:06:21.968Z,8.84
2022-12-29T20:08:53.123Z,8.76
2022-12-29T20:11:21.400Z,8.82
2022-12-29T20:13:49.422Z,8.92
2022-12-29T20:16:20.485Z,8.77
2022-12-29T20:18:49.572Z,9.01
2022-12-29T20:21:21.886Z,8.85
2022-12-29T20:23:51.498Z,8.84
2022-12-29T20:26:24.374Z,8.86
2022-12-29T20:28:53.184Z,8.78
2022-12-29T20:31:25.402Z,9.09
2022-12-29T20:33:53.590Z,8.89
2022-12-29T20:36:26.599Z,8.79
2022-12-29T20:38:57.429Z,8.84
2022-12-29T20:41:26.329Z,8.66
2022-12-29T20:43:55.754Z,8.91
2022-12-29T20:46:31.877Z,8.91
2022-12-29T20:49:03.046Z,9.01
2022-12-29T20:52:03.705Z,9.01
2022-12-29T20:54:21.909Z,9.05
2022-12-29T20:56:50.047Z,9.07
2022-12-29T20:59:27.361Z,9.19
2022-12-29T21:01:56.963Z,9.05
2022-12-29T21:04:25.433Z,9.19
2022-12-29T21:06:54.661Z,9.24
2022-12-29T21:09:22.892Z,9.16
2022-12-29T21:11:50.954Z,8.97
2022-12-29T21:14:18.720Z,9.06
2022-12-29T21:16:47.283Z,8.91
2022-12-29T21:19:16.201Z,9.03
2022-12-29T21:21:43.958Z,9.08
2022-12-29T21:24:13.523Z,9.08
2022-12-29T21:26:41.679Z,8.99
2022-12-29T21:29:09.507Z,8.68
2022-12-29T21:31:38.732Z,8.80
2022-12-29T21:34:07.659Z,8.95
2022-12-29T21:36:35.421Z,8.80
2022-12-29T21:39:04.219Z,8.87
2022-12-29T21:41:34.969Z,8.68
2022-12-29T21:44:20.620Z,8.72
2022-12-29T21:46:48.746Z,8.70
2022-12-29T21:49:17.347Z,8.88
2022-12-29T21:51:51.229Z,8.55
2022-12-29T21:54:37.763Z,8.67
2022-12-29T21:57:07.931Z,8.53
2022-12-29T21:59:54.851Z,8.47
2022-12-29T22:02:43.201Z,8.55
2022-12-29T22:05:31.103Z,8.50
2022-12-29T22:08:17.221Z,8.57
2022-12-29T22:11:05.780Z,8.63
2022-12-29T22:13:37.356Z,8.70
2022-12-29T22:16:10.350Z,8.69
2022-12-29T22:18:38.747Z,8.91
2022-12-29T22:21:09.097Z,9.09
2022-12-29T22:23:38.138Z,8.68
2022-12-29T22:26:08.238Z,8.69
2022-12-29T22:28:39.104Z,8.73
2022-12-29T22:31:09.492Z,8.72
2022-12-29T22:33:37.362Z,8.65
2022-12-29T22:36:06.155Z,8.54
2022-12-29T22:38:33.998Z,8.86
2022-12-29T22:41:01.880Z,8.86
2022-12-29T22:43:30.576Z,8.55
2022-12-29T22:46:05.105Z,8.81
2022-12-29T22:48:33.747Z,8.55
2022-12-29T22:51:01.940Z,8.64
2022-12-29T22:53:29.996Z,8.71
2022-12-29T22:56:06.923Z,8.50
2022-12-29T22:58:34.793Z,8.82
2022-12-29T23:01:05.775Z,8.56
2022-12-29T23:03:34.481Z,8.55
2022-12-29T23:06:06.008Z,8.64
2022-12-29T23:08:37.124Z,8.28
2022-12-29T23:11:07.722Z,8.61
2022-12-29T23:13:36.066Z,8.68
2022-12-29T23:16:05.712Z,8.57
2022-12-29T23:18:33.989Z,8.45
2022-12-29T23:21:01.907Z,8.66
2022-12-29T23:23:48.867Z,8.39
2022-12-29T23:26:17.320Z,8.56
2022-12-29T23:28:45.740Z,8.46
2022-12-29T23:31:21.655Z,8.69
2022-12-29T23:33:49.831Z,8.34
2022-12-29T23:36:18.758Z,8.32
2022-12-29T23:38:46.467Z,8.61
2022-12-29T23:41:14.599Z,8.30
2022-12-29T23:43:42.366Z,8.02
2022-12-29T23:46:12.787Z,8.06
2022-12-29T23:48:42.127Z,8.20
2022-12-29T23:51:10.956Z,8.25
2022-12-29T23:53:42.379Z,7.84
2022-12-29T23:56:13.675Z,8.07
2022-12-29T23:58:41.558Z,8.19
